Time;durP1;ratioP1;P1;durP2;ratioP2;P2;SDS_P1;SDS_P2;PMS_P1;PMS_P2;Temp;Humidity;BMP_temperature;BMP_pressure;BME280_temperature;BME280_humidity;BME280_pressure;Samples;Min_cycle;Max_cycle;Signal;HPM_P1;HPM_P2
2022/05/02 00:04:48;;;;;;;11.20;5.85;;;;;;;10.91;68.55;100621.69;18427288;32;20163;-64
2022/05/02 00:14:53;;;;;;;10.55;5.68;;;;;;;10.65;69.21;100617.31;18427175;32;20194;-64
2022/05/02 00:24:58;;;;;;;11.25;5.47;;;;;;;10.34;70.72;100614.62;18427077;32;20111;-64
2022/05/02 00:35:09;;;;;;;10.63;5.30;;;;;;;10.44;69.56;100619.03;18432798;32;20368;-64
2022/05/02 00:45:15;;;;;;;13.32;5.95;;;;;;;10.78;69.32;100620.81;18435158;32;20477;-65
2022/05/02 00:55:19;;;;;;;9.98;5.00;;;;;;;10.69;68.36;100632.97;18434435;32;20154;-64
2022/05/02 01:05:23;;;;;;;12.18;5.05;;;;;;;10.19;70.68;100628.50;18433969;32;20108;-65
2022/05/02 01:15:28;;;;;;;9.63;4.72;;;;;;;11.12;66.13;100636.50;18433763;32;20107;-65
2022/05/02 01:25:33;;;;;;;9.27;4.55;;;;;;;10.78;68.03;100621.69;18433746;32;20101;-65
2022/05/02 01:35:36;;;;;;;9.60;4.55;;;;;;;10.50;70.10;100613.81;18433358;32;20128;-65
2022/05/02 01:45:42;;;;;;;11.10;5.22;;;;;;;10.50;69.01;100628.59;18432195;32;20081;-64
2022/05/02 01:55:45;;;;;;;10.57;5.00;;;;;;;10.29;69.51;100622.44;18432748;32;20084;-65
2022/05/02 02:05:49;;;;;;;10.98;4.60;;;;;;;10.60;69.35;100621.66;18432376;32;20703;-65
2022/05/02 02:15:53;;;;;;;10.73;5.12;;;;;;;10.32;71.17;100616.37;18431846;32;20084;-65
2022/05/02 02:25:58;;;;;;;11.15;4.62;;;;;;;10.98;69.19;100606.87;18431572;32;20443;-65
2022/05/02 02:36:01;;;;;;;9.77;4.70;;;;;;;10.69;71.40;100601.66;18431773;32;20457;-65
2022/05/02 02:46:05;;;;;;;10.10;5.37;;;;;;;11.13;69.73;100606.87;18432881;32;20433;-65
2022/05/02 02:56:09;;;;;;;14.13;6.70;;;;;;;11.27;70.23;100608.56;18429819;32;20140;-64
2022/05/02 03:06:14;;;;;;;9.32;4.95;;;;;;;11.39;69.55;100605.97;18430286;32;20147;-65
2022/05/02 03:16:17;;;;;;;10.70;5.70;;;;;;;11.43;68.77;100625.09;18430375;32;20093;-65
2022/05/02 03:26:21;;;;;;;8.93;4.50;;;;;;;11.43;69.02;100633.81;18428822;32;20137;-65
2022/05/02 03:36:25;;;;;;;11.38;5.00;;;;;;;11.32;69.22;100622.53;18425381;32;20408;-65
2022/05/02 03:46:29;;;;;;;9.68;5.28;;;;;;;11.22;69.36;100626.87;18425055;32;20108;-65
2022/05/02 03:56:32;;;;;;;10.73;5.35;;;;;;;11.14;70.07;100621.66;18426521;32;20093;-65
2022/05/02 04:06:37;;;;;;;9.27;4.50;;;;;;;11.46;69.16;100614.66;18435677;32;20097;-65
2022/05/02 04:16:40;;;;;;;9.63;4.47;;;;;;;11.52;68.00;100612.88;18448467;32;20093;-65
2022/05/02 04:26:45;;;;;;;9.90;5.00;;;;;;;12.41;66.71;100616.87;18445452;32;20119;-65
2022/05/02 04:36:48;;;;;;;11.75;5.30;;;;;;;12.28;67.99;100622.19;18448378;32;20097;-65
2022/05/02 04:46:52;;;;;;;14.30;5.97;;;;;;;12.26;67.57;100621.34;18446600;32;20104;-65
2022/05/02 04:56:56;;;;;;;9.98;4.72;;;;;;;12.92;65.04;100619.13;18448351;32;20100;-65
2022/05/02 05:07:07;;;;;;;10.13;4.78;;;;;;;13.68;61.48;100617.53;18448606;32;20097;-65
2022/05/02 05:17:27;;;;;;;10.05;4.68;;;;;;;14.48;60.63;100618.22;18443820;32;20373;-65
2022/05/02 05:27:51;;;;;;;9.30;4.57;;;;;;;14.36;59.15;100618.44;18435020;32;20118;-65
2022/05/02 05:38:02;;;;;;;8.35;3.95;;;;;;;15.32;56.87;100627.41;18434737;32;20092;-65
2022/05/02 05:48:13;;;;;;;10.85;4.45;;;;;;;15.16;53.94;100621.56;18435434;32;20129;-65
2022/05/02 05:58:25;;;;;;;10.60;4.45;;;;;;;15.03;56.84;100636.69;18434500;32;20439;-65
2022/05/02 06:08:32;;;;;;;12.07;5.80;;;;;;;15.52;54.72;100624.41;18434761;32;20502;-65
2022/05/02 06:18:36;;;;;;;15.63;6.62;;;;;;;17.23;51.16;100608.34;18419693;32;20362;-65
2022/05/02 06:28:43;;;;;;;14.30;6.37;;;;;;;17.88;50.58;100622.38;18434225;32;20193;-65
2022/05/02 06:39:00;;;;;;;13.45;6.00;;;;;;;18.52;47.26;100612.56;18418444;32;20093;-66
2022/05/02 06:49:05;;;;;;;8.70;4.27;;;;;;;18.97;45.77;100619.87;18433076;32;20104;-66
2022/05/02 06:59:19;;;;;;;6.65;3.15;;;;;;;20.29;38.24;100611.62;18432745;32;20111;-66
2022/05/02 07:09:28;;;;;;;6.12;2.65;;;;;;;20.90;34.85;100609.22;18231195;32;20129;-66
2022/05/02 07:19:41;;;;;;;7.28;3.10;;;;;;;23.48;31.28;100609.59;18184073;32;20093;-66
2022/05/02 07:29:48;;;;;;;7.35;2.87;;;;;;;24.38;31.14;100599.37;18375074;32;20167;-66
2022/05/02 07:39:52;;;;;;;4.72;2.67;;;;;;;24.02;31.05;100604.00;18366935;32;20093;-66
2022/05/02 07:49:57;;;;;;;9.13;2.70;;;;;;;24.26;30.42;100606.28;18366626;32;20137;-65
2022/05/02 08:00:03;;;;;;;3.08;1.58;;;;;;;22.35;34.47;100610.75;18366000;32;20106;-66
2022/05/02 08:10:30;;;;;;;2.45;1.52;;;;;;;22.63;34.35;100604.13;18370268;32;20350;-66
2022/05/02 08:20:38;;;;;;;2.03;1.20;;;;;;;22.34;34.35;100606.37;18406600;32;20103;-65
2022/05/02 08:30:49;;;;;;;3.30;1.60;;;;;;;21.73;36.11;100607.41;18429447;32;20123;-66
2022/05/02 08:41:40;;;;;;;7.90;1.60;;;;;;;22.41;34.11;100600.69;18367064;32;20082;-66
2022/05/02 08:52:27;;;;;;;3.50;1.50;;;;;;;22.65;32.57;100596.91;18423088;32;20120;-66
2022/05/02 09:02:56;;;;;;;1.87;1.20;;;;;;;23.40;32.84;100592.22;18432166;32;20144;-66
2022/05/02 09:13:49;;;;;;;5.47;1.48;;;;;;;23.70;31.17;100567.50;18378300;32;20093;-66
2022/05/02 09:24:37;;;;;;;3.25;1.40;;;;;;;24.02;31.15;100560.50;18427477;32;20105;-66
2022/05/02 09:34:55;;;;;;;3.58;1.55;;;;;;;22.70;32.43;100563.81;18147779;32;20122;-66
2022/05/02 10:06:05;;;;;;;3.28;1.40;;;;;;;24.30;28.32;100541.13;18236075;32;20124;-66
2022/05/02 10:16:19;;;;;;;5.07;1.87;;;;;;;23.52;31.04;100524.09;18397796;32;20100;-66
2022/05/02 10:26:32;;;;;;;1.95;1.42;;;;;;;24.08;30.03;100506.81;18377516;32;20105;-66
2022/05/02 10:36:40;;;;;;;1.75;1.20;;;;;;;24.35;29.57;100499.06;18386127;32;20366;-66
2022/05/02 10:46:45;;;;;;;4.10;1.50;;;;;;;24.50;28.23;100486.59;18400461;32;20109;-66
2022/05/02 10:56:58;;;;;;;2.70;1.60;;;;;;;23.65;31.13;100476.31;18355459;32;20124;-66
2022/05/02 11:07:07;;;;;;;2.58;1.30;;;;;;;23.53;32.17;100477.84;18354162;32;20093;-65
2022/05/02 11:17:26;;;;;;;3.75;1.50;;;;;;;23.18;31.63;100475.28;18368084;32;20093;-66
2022/05/02 11:27:39;;;;;;;4.10;1.50;;;;;;;23.40;30.49;100474.16;18367678;32;20195;-66
2022/05/02 11:37:56;;;;;;;3.70;1.50;;;;;;;23.72;29.86;100457.34;18377779;32;20107;-66
2022/05/02 11:48:10;;;;;;;3.55;1.45;;;;;;;23.69;29.63;100458.34;18430399;32;20096;-66
2022/05/02 11:58:22;;;;;;;2.35;1.17;;;;;;;24.06;28.44;100456.28;18430203;32;20150;-66
2022/05/02 12:08:33;;;;;;;2.58;1.42;;;;;;;24.28;30.49;100451.47;18387538;32;20138;-66
2022/05/02 12:18:44;;;;;;;2.75;1.27;;;;;;;24.47;27.65;100436.13;18350692;32;20093;-66
2022/05/02 12:28:48;;;;;;;;;;;;;;;24.83;28.33;100419.75;18368851;32;20085;-66
2022/05/02 12:39:05;;;;;;;3.47;1.40;;;;;;;25.17;26.36;100405.12;18378952;32;19981;-66
2022/05/02 12:49:13;;;;;;;3.53;1.48;;;;;;;25.46;24.57;100396.22;18432157;32;20108;-67
2022/05/02 13:09:40;;;;;;;4.30;1.60;;;;;;;25.58;22.69;100375.87;18371777;32;20112;-67
2022/05/02 13:19:45;;;;;;;3.10;1.62;;;;;;;25.01;24.10;100361.69;18356250;32;20119;-67
2022/05/02 13:30:02;;;;;;;2.83;1.50;;;;;;;25.80;24.74;100353.94;18370432;32;20093;-67
2022/05/02 13:40:09;;;;;;;2.30;1.50;;;;;;;25.89;24.47;100337.25;18369553;32;20342;-67
2022/05/02 13:50:16;;;;;;;8.57;1.60;;;;;;;25.60;25.69;100328.53;18380693;32;20148;-68
2022/05/02 14:10:53;;;;;;;5.70;2.10;;;;;;;25.88;24.16;100306.13;18423588;32;20125;-67
2022/05/02 14:21:01;;;;;;;2.78;1.55;;;;;;;25.00;25.63;100309.25;18419455;32;20116;-67
2022/05/02 14:31:06;;;;;;;6.47;1.85;;;;;;;25.16;26.38;100317.12;18433484;32;20096;-67
2022/05/02 14:41:11;;;;;;;4.10;1.85;;;;;;;23.86;26.19;100332.13;18418585;32;20127;-67
2022/05/02 14:51:14;;;;;;;4.62;2.10;;;;;;;23.53;27.69;100335.81;18430923;32;20093;-67
2022/05/02 15:01:19;;;;;;;4.07;1.52;;;;;;;23.00;28.84;100349.37;18417578;32;20100;-67
2022/05/02 15:11:27;;;;;;;0.90;0.90;;;;;;;22.82;29.69;100340.62;18431750;32;20125;-67
2022/05/02 15:21:33;;;;;;;2.58;1.58;;;;;;;22.98;28.24;100325.50;18433352;32;20103;-67
2022/05/02 15:42:09;;;;;;;2.30;1.05;;;;;;;23.45;26.72;100322.94;18430201;32;20104;-67
2022/05/02 15:52:16;;;;;;;2.33;1.20;;;;;;;23.47;27.91;100322.84;18427891;32;20097;-70
2022/05/02 16:02:23;;;;;;;2.55;1.48;;;;;;;23.03;30.43;100314.59;18422943;32;166042;-67
2022/05/02 16:12:26;;;;;;;3.08;1.35;;;;;;;22.52;31.49;100312.94;18428055;32;20093;-67
2022/05/02 16:22:31;;;;;;;1.87;1.15;;;;;;;22.22;32.87;100308.28;18428099;32;20108;-67
2022/05/02 16:32:36;;;;;;;2.30;1.20;;;;;;;22.36;32.05;100293.38;18427825;32;20069;-67
2022/05/02 16:42:42;;;;;;;2.15;1.20;;;;;;;22.46;32.33;100286.62;18426924;32;20111;-67
2022/05/02 16:52:46;;;;;;;6.53;2.03;;;;;;;22.50;31.77;100292.66;18425991;32;20077;-67
2022/05/02 17:02:51;;;;;;;3.30;1.90;;;;;;;22.46;32.12;100291.94;18424797;32;20127;-68
2022/05/02 17:12:54;;;;;;;2.85;1.40;;;;;;;21.81;35.20;100285.56;18428126;32;20097;-67
2022/05/02 17:23:01;;;;;;;3.35;1.30;;;;;;;21.47;37.49;100304.03;18419857;32;20421;-67
2022/05/02 17:33:05;;;;;;;3.95;1.65;;;;;;;20.68;39.08;100310.38;18420076;32;20093;-67
2022/05/02 17:43:20;;;;;;;3.45;1.95;;;;;;;19.99;42.89;100322.28;18419779;32;20097;-67
2022/05/02 17:53:26;;;;;;;4.07;1.70;;;;;;;19.76;43.95;100324.94;18417639;32;20093;-67
2022/05/02 18:03:31;;;;;;;2.45;1.60;;;;;;;19.23;46.27;100342.94;18433048;32;20111;-67
2022/05/02 18:13:42;;;;;;;3.35;1.75;;;;;;;18.74;47.22;100339.50;18433890;32;20096;-67
2022/05/02 18:23:51;;;;;;;6.15;2.08;;;;;;;18.34;48.90;100340.03;18418324;32;20114;-67
2022/05/02 18:33:58;;;;;;;2.65;1.90;;;;;;;18.06;50.28;100341.00;18433540;32;20142;-67
2022/05/02 18:44:10;;;;;;;5.78;2.45;;;;;;;17.86;49.95;100352.19;18419247;32;20101;-65
2022/05/02 18:54:16;;;;;;;6.40;2.45;;;;;;;17.17;51.06;100364.91;18418908;32;20100;-65
2022/05/02 19:04:22;;;;;;;8.43;3.37;;;;;;;16.73;52.80;100367.91;18419549;32;20097;-65
2022/05/02 19:14:25;;;;;;;11.23;3.90;;;;;;;16.44;53.96;100381.88;18432555;32;20434;-65
2022/05/02 19:24:43;;;;;;;10.82;4.35;;;;;;;16.04;55.57;100395.19;18432003;32;20401;-65
2022/05/02 19:45:18;;;;;;;14.07;5.32;;;;;;;15.90;55.87;100410.44;18416845;32;20104;-65
2022/05/02 19:55:21;;;;;;;10.50;4.97;;;;;;;15.93;55.75;100413.91;18429370;32;20093;-65
2022/05/02 20:05:26;;;;;;;11.93;5.25;;;;;;;16.01;56.02;100416.34;18431223;32;20171;-65
2022/05/02 20:15:32;;;;;;;12.10;4.40;;;;;;;15.46;57.35;100419.31;18414453;32;20136;-65
2022/05/02 20:25:36;;;;;;;10.93;4.28;;;;;;;14.85;58.06;100414.47;18415819;32;20368;-65
2022/05/02 20:46:04;;;;;;;8.65;3.67;;;;;;;14.43;58.44;100441.47;18422765;32;20086;-65
2022/05/02 20:56:09;;;;;;;11.38;4.20;;;;;;;14.82;58.13;100430.28;18420538;32;20097;-64
2022/05/02 21:06:13;;;;;;;7.55;3.55;;;;;;;13.97;61.91;100448.34;18421328;32;20373;-64
2022/05/02 21:16:20;;;;;;;8.85;3.80;;;;;;;14.11;59.74;100442.88;18421007;32;20119;-64
2022/05/02 21:26:32;;;;;;;9.57;3.95;;;;;;;13.99;60.21;100449.19;18436406;32;20377;-65
2022/05/02 21:36:36;;;;;;;8.38;3.45;;;;;;;13.25;62.13;100423.09;18387889;32;20097;-65
2022/05/02 21:46:41;;;;;;;21.42;9.90;;;;;;;13.95;59.71;100427.41;18371043;32;20138;-65
2022/05/02 21:56:44;;;;;;;8.05;3.58;;;;;;;13.43;62.43;100421.13;18357119;32;20149;-64
2022/05/02 22:06:49;;;;;;;11.50;4.40;;;;;;;13.49;62.52;100415.81;18355307;32;20163;-65
2022/05/02 22:16:52;;;;;;;8.55;3.58;;;;;;;13.28;63.33;100416.97;18371124;32;20501;-65
2022/05/02 22:26:57;;;;;;;11.60;5.35;;;;;;;13.04;65.24;100416.37;18369640;32;20449;-65
2022/05/02 22:37:00;;;;;;;15.68;6.28;;;;;;;13.31;64.44;100411.66;18375115;32;20119;-65
2022/05/02 22:47:06;;;;;;;14.27;5.85;;;;;;;13.50;64.48;100404.44;18414056;32;20105;-63
2022/05/02 22:57:10;;;;;;;10.85;5.10;;;;;;;13.59;65.12;100398.19;18418436;32;20104;-63
2022/05/02 23:07:32;;;;;;;10.43;4.80;;;;;;;13.25;66.59;100386.41;18432429;32;20402;-63
2022/05/02 23:17:36;;;;;;;15.07;5.63;;;;;;;13.30;65.91;100386.34;18430944;32;20375;-63
2022/05/02 23:27:42;;;;;;;9.07;4.80;;;;;;;13.18;66.59;100387.38;18432013;32;20103;-63
2022/05/02 23:38:00;;;;;;;11.80;4.50;;;;;;;13.45;65.33;100383.53;18431886;32;20135;-63
2022/05/02 23:48:17;;;;;;;10.32;4.85;;;;;;;13.35;64.91;100378.41;18431156;32;20097;-63
2022/05/02 23:58:37;;;;;;;10.43;5.45;;;;;;;14.01;61.97;100382.66;18431086;32;20092;-63
